sensor_id;sensor_type;location;lat;lon;timestamp;pressure;altitude;pressure_sealevel;temperature;humidity
46347;BME280;32057;47.830;19.046;2023-03-15T00:01:32;98980.59;;;9.04;100.00
46347;BME280;32057;47.830;19.046;2023-03-15T00:03:58;98992.72;;;9.03;100.00
46347;BME280;32057;47.830;19.046;2023-03-15T00:06:23;98984.91;;;8.97;100.00
46347;BME280;32057;47.830;19.046;2023-03-15T00:08:49;98986.59;;;8.96;100.00
46347;BME280;32057;47.830;19.046;2023-03-15T00:11:17;98986.59;;;8.96;100.00
46347;BME280;32057;47.830;19.046;2023-03-15T00:13:43;98989.22;;;9.00;100.00
46347;BME280;32057;47.830;19.046;2023-03-15T00:16:09;98989.19;;;8.96;100.00
46347;BME280;32057;47.830;19.046;2023-03-15T00:18:35;98996.13;;;8.96;100.00
46347;BME280;32057;47.830;19.046;2023-03-15T00:21:00;99011.69;;;8.97;100.00
46347;BME280;32057;47.830;19.046;2023-03-15T00:23:26;99003.94;;;9.01;100.00
46347;BME280;32057;47.830;19.046;2023-03-15T00:25:52;99007.44;;;9.07;100.00
46347;BME280;32057;47.830;19.046;2023-03-15T00:28:18;99016.91;;;9.04;100.00
46347;BME280;32057;47.830;19.046;2023-03-15T00:30:44;99022.09;;;9.04;100.00
46347;BME280;32057;47.830;19.046;2023-03-15T00:33:11;99018.66;;;9.02;100.00
46347;BME280;32057;47.830;19.046;2023-03-15T00:35:40;99029.84;;;8.96;100.00
46347;BME280;32057;47.830;19.046;2023-03-15T00:38:06;99041.13;;;9.01;100.00
46347;BME280;32057;47.830;19.046;2023-03-15T00:40:31;99041.16;;;9.03;100.00
46347;BME280;32057;47.830;19.046;2023-03-15T00:42:57;99033.34;;;9.00;100.00
46347;BME280;32057;47.830;19.046;2023-03-15T00:45:22;99035.06;;;8.99;100.00
46347;BME280;32057;47.830;19.046;2023-03-15T00:47:52;99043.66;;;8.92;100.00
46347;BME280;32057;47.830;19.046;2023-03-15T00:50:19;99035.03;;;8.93;100.00
46347;BME280;32057;47.830;19.046;2023-03-15T00:52:44;99035.91;;;8.93;100.00
46347;BME280;32057;47.830;19.046;2023-03-15T00:55:11;99044.56;;;8.98;100.00
46347;BME280;32057;47.830;19.046;2023-03-15T00:57:41;99037.63;;;8.94;100.00
46347;BME280;32057;47.830;19.046;2023-03-15T01:00:10;99030.72;;;8.93;100.00
46347;BME280;32057;47.830;19.046;2023-03-15T01:02:36;99035.03;;;8.94;100.00
46347;BME280;32057;47.830;19.046;2023-03-15T01:05:04;99025.47;;;8.90;100.00
46347;BME280;32057;47.830;19.046;2023-03-15T01:07:31;99020.28;;;8.86;100.00
46347;BME280;32057;47.830;19.046;2023-03-15T01:10:03;99027.19;;;8.88;100.00
46347;BME280;32057;47.830;19.046;2023-03-15T01:12:31;99028.06;;;8.86;100.00
46347;BME280;32057;47.830;19.046;2023-03-15T01:14:58;99028.06;;;8.83;100.00
46347;BME280;32057;47.830;19.046;2023-03-15T01:17:23;99030.66;;;8.83;100.00
46347;BME280;32057;47.830;19.046;2023-03-15T01:19:49;99027.19;;;8.85;100.00
46347;BME280;32057;47.830;19.046;2023-03-15T01:22:16;99022.81;;;8.78;100.00
46347;BME280;32057;47.830;19.046;2023-03-15T01:24:41;99019.38;;;8.77;100.00
46347;BME280;32057;47.830;19.046;2023-03-15T01:27:07;99010.72;;;8.80;100.00
46347;BME280;32057;47.830;19.046;2023-03-15T01:29:32;99011.63;;;8.84;100.00
46347;BME280;32057;47.830;19.046;2023-03-15T01:31:58;99009.88;;;8.81;100.00
46347;BME280;32057;47.830;19.046;2023-03-15T01:34:23;99002.09;;;8.81;100.00
46347;BME280;32057;47.830;19.046;2023-03-15T01:36:49;99000.31;;;8.74;100.00
46347;BME280;32057;47.830;19.046;2023-03-15T01:39:16;98990.81;;;8.73;100.00
46347;BME280;32057;47.830;19.046;2023-03-15T01:41:42;98988.16;;;8.65;100.00
46347;BME280;32057;47.830;19.046;2023-03-15T01:44:15;98989.06;;;8.69;100.00
46347;BME280;32057;47.830;19.046;2023-03-15T01:46:41;98994.22;;;8.70;100.00
46347;BME280;32057;47.830;19.046;2023-03-15T01:49:17;98993.34;;;8.68;100.00
46347;BME280;32057;47.830;19.046;2023-03-15T01:51:52;98989.06;;;8.69;100.00
46347;BME280;32057;47.830;19.046;2023-03-15T01:56:59;98981.22;;;8.61;100.00
46347;BME280;32057;47.830;19.046;2023-03-15T01:59:29;98990.72;;;8.57;100.00
46347;BME280;32057;47.830;19.046;2023-03-15T02:01:56;98992.44;;;8.58;100.00
46347;BME280;32057;47.830;19.046;2023-03-15T02:04:37;98994.97;;;8.49;100.00
46347;BME280;32057;47.830;19.046;2023-03-15T02:07:04;99002.72;;;8.48;100.00
46347;BME280;32057;47.830;19.046;2023-03-15T02:09:41;99005.34;;;8.49;100.00
46347;BME280;32057;47.830;19.046;2023-03-15T02:12:09;99013.13;;;8.52;100.00
46347;BME280;32057;47.830;19.046;2023-03-15T02:14:35;99017.44;;;8.49;100.00
46347;BME280;32057;47.830;19.046;2023-03-15T02:17:01;99023.47;;;8.46;100.00
46347;BME280;32057;47.830;19.046;2023-03-15T02:22:22;99035.53;;;8.41;100.00
46347;BME280;32057;47.830;19.046;2023-03-15T02:27:26;99042.34;;;8.33;100.00
46347;BME280;32057;47.830;19.046;2023-03-15T02:29:52;99042.34;;;8.36;100.00
46347;BME280;32057;47.830;19.046;2023-03-15T02:32:18;99045.84;;;8.40;100.00
46347;BME280;32057;47.830;19.046;2023-03-15T02:34:43;99045.81;;;8.38;100.00
46347;BME280;32057;47.830;19.046;2023-03-15T02:37:09;99041.50;;;8.37;100.00
46347;BME280;32057;47.830;19.046;2023-03-15T02:39:34;99038.94;;;8.40;100.00
46347;BME280;32057;47.830;19.046;2023-03-15T02:42:00;99033.75;;;8.37;100.00
46347;BME280;32057;47.830;19.046;2023-03-15T02:44:29;99034.63;;;8.39;100.00
46347;BME280;32057;47.830;19.046;2023-03-15T02:47:03;99034.56;;;8.34;100.00
46347;BME280;32057;47.830;19.046;2023-03-15T02:49:32;99046.66;;;8.34;100.00
46347;BME280;32057;47.830;19.046;2023-03-15T02:51:59;99044.06;;;8.34;100.00
46347;BME280;32057;47.830;19.046;2023-03-15T02:54:24;99043.22;;;8.36;100.00
46347;BME280;32057;47.830;19.046;2023-03-15T02:56:50;99045.78;;;8.29;100.00
46347;BME280;32057;47.830;19.046;2023-03-15T02:59:15;99052.72;;;8.33;100.00
46347;BME280;32057;47.830;19.046;2023-03-15T03:01:41;99046.63;;;8.32;100.00
46347;BME280;32057;47.830;19.046;2023-03-15T03:04:10;99050.97;;;8.32;100.00
46347;BME280;32057;47.830;19.046;2023-03-15T03:06:35;99047.53;;;8.33;100.00
46347;BME280;32057;47.830;19.046;2023-03-15T03:09:01;99050.09;;;8.31;100.00
46347;BME280;32057;47.830;19.046;2023-03-15T03:11:27;99049.16;;;8.25;100.00
46347;BME280;32057;47.830;19.046;2023-03-15T03:13:52;99046.56;;;8.23;100.00
46347;BME280;32057;47.830;19.046;2023-03-15T03:16:18;99046.53;;;8.20;100.00
46347;BME280;32057;47.830;19.046;2023-03-15T03:18:43;99040.44;;;8.16;100.00
46347;BME280;32057;47.830;19.046;2023-03-15T03:21:09;99049.09;;;8.18;100.00
46347;BME280;32057;47.830;19.046;2023-03-15T03:23:35;99047.34;;;8.14;100.00
46347;BME280;32057;47.830;19.046;2023-03-15T03:26:01;99039.63;;;8.19;100.00
46347;BME280;32057;47.830;19.046;2023-03-15T03:28:28;99044.81;;;8.19;100.00
46347;BME280;32057;47.830;19.046;2023-03-15T03:30:55;99038.72;;;8.15;100.00
46347;BME280;32057;47.830;19.046;2023-03-15T03:33:22;99035.22;;;8.10;100.00
46347;BME280;32057;47.830;19.046;2023-03-15T03:35:48;99044.78;;;8.16;100.00
46347;BME280;32057;47.830;19.046;2023-03-15T03:38:14;99040.44;;;8.16;100.00
46347;BME280;32057;47.830;19.046;2023-03-15T03:40:40;99043.88;;;8.12;100.00
46347;BME280;32057;47.830;19.046;2023-03-15T03:43:07;99036.91;;;8.05;100.00
46347;BME280;32057;47.830;19.046;2023-03-15T03:45:33;99021.38;;;8.08;100.00
46347;BME280;32057;47.830;19.046;2023-03-15T03:47:59;99023.13;;;8.09;98.30
46347;BME280;32057;47.830;19.046;2023-03-15T03:50:24;99027.41;;;8.06;98.43
46347;BME280;32057;47.830;19.046;2023-03-15T03:52:50;99026.50;;;7.99;100.00
46347;BME280;32057;47.830;19.046;2023-03-15T03:55:15;99027.34;;;8.00;97.59
46347;BME280;32057;47.830;19.046;2023-03-15T03:57:42;99037.63;;;7.92;100.00
46347;BME280;32057;47.830;19.046;2023-03-15T04:00:10;99028.13;;;7.91;100.00
46347;BME280;32057;47.830;19.046;2023-03-15T04:02:36;99023.84;;;7.96;99.93
46347;BME280;32057;47.830;19.046;2023-03-15T04:05:02;99022.16;;;8.00;99.00
46347;BME280;32057;47.830;19.046;2023-03-15T04:07:27;99014.41;;;8.01;97.50
46347;BME280;32057;47.830;19.046;2023-03-15T04:09:53;99022.19;;;8.04;98.77
46347;BME280;32057;47.830;19.046;2023-03-15T04:12:18;99030.00;;;8.07;99.10
46347;BME280;32057;47.830;19.046;2023-03-15T04:14:43;99023.97;;;8.05;100.00
46347;BME280;32057;47.830;19.046;2023-03-15T04:17:09;99023.06;;;8.03;99.28
46347;BME280;32057;47.830;19.046;2023-03-15T04:19:35;99026.56;;;8.08;97.50
46347;BME280;32057;47.830;19.046;2023-03-15T04:22:01;99034.34;;;8.07;99.39
46347;BME280;32057;47.830;19.046;2023-03-15T04:24:33;99035.19;;;8.07;98.43
46347;BME280;32057;47.830;19.046;2023-03-15T04:26:59;99032.56;;;8.01;98.23
46347;BME280;32057;47.830;19.046;2023-03-15T04:29:25;99028.16;;;7.94;98.60
46347;BME280;32057;47.830;19.046;2023-03-15T04:31:50;99032.44;;;7.92;95.75
46347;BME280;32057;47.830;19.046;2023-03-15T04:34:16;99027.25;;;7.90;94.22
46347;BME280;32057;47.830;19.046;2023-03-15T04:36:41;99023.69;;;7.81;95.65
46347;BME280;32057;47.830;19.046;2023-03-15T04:39:07;99024.63;;;7.86;96.44
46347;BME280;32057;47.830;19.046;2023-03-15T04:41:34;99023.75;;;7.87;95.78
46347;BME280;32057;47.830;19.046;2023-03-15T04:44:03;99026.28;;;7.81;96.37
46347;BME280;32057;47.830;19.046;2023-03-15T04:46:30;99040.94;;;7.78;95.63
46347;BME280;32057;47.830;19.046;2023-03-15T04:48:57;99045.09;;;7.64;95.17
46347;BME280;32057;47.830;19.046;2023-03-15T04:51:22;99039.06;;;7.67;95.41
46347;BME280;32057;47.830;19.046;2023-03-15T04:53:49;99045.09;;;7.64;96.22
46347;BME280;32057;47.830;19.046;2023-03-15T04:56:14;99045.97;;;7.63;95.34
46347;BME280;32057;47.830;19.046;2023-03-15T04:58:40;99059.66;;;7.54;96.28
46347;BME280;32057;47.830;19.046;2023-03-15T05:01:05;99067.41;;;7.51;95.58
46347;BME280;32057;47.830;19.046;2023-03-15T05:03:31;99072.47;;;7.44;96.07
46347;BME280;32057;47.830;19.046;2023-03-15T05:05:56;99068.88;;;7.32;96.03
46347;BME280;32057;47.830;19.046;2023-03-15T05:08:22;99064.44;;;7.24;98.63
46347;BME280;32057;47.830;19.046;2023-03-15T05:10:47;99072.94;;;7.13;98.78
46347;BME280;32057;47.830;19.046;2023-03-15T05:13:12;99073.84;;;7.17;97.59
46347;BME280;32057;47.830;19.046;2023-03-15T05:15:38;99088.31;;;7.04;98.73
46347;BME280;32057;47.830;19.046;2023-03-15T05:18:04;99093.41;;;6.98;98.33
46347;BME280;32057;47.830;19.046;2023-03-15T05:20:29;99094.19;;;6.92;98.70
46347;BME280;32057;47.830;19.046;2023-03-15T05:22:55;99099.25;;;6.86;98.25
46347;BME280;32057;47.830;19.046;2023-03-15T05:25:21;99104.44;;;6.86;99.15
46347;BME280;32057;47.830;19.046;2023-03-15T05:27:46;99106.91;;;6.80;100.00
46347;BME280;32057;47.830;19.046;2023-03-15T05:30:12;99107.72;;;6.76;99.54
46347;BME280;32057;47.830;19.046;2023-03-15T05:32:41;99111.09;;;6.72;100.00
46347;BME280;32057;47.830;19.046;2023-03-15T05:35:09;99110.16;;;6.67;100.00
46347;BME280;32057;47.830;19.046;2023-03-15T05:37:35;99111.09;;;6.72;99.48
46347;BME280;32057;47.830;19.046;2023-03-15T05:40:01;99122.97;;;6.61;100.00
46347;BME280;32057;47.830;19.046;2023-03-15T05:42:26;99122.84;;;6.51;100.00
46347;BME280;32057;47.830;19.046;2023-03-15T05:44:52;99120.25;;;6.53;100.00
46347;BME280;32057;47.830;19.046;2023-03-15T05:47:17;99122.88;;;6.54;100.00
46347;BME280;32057;47.830;19.046;2023-03-15T05:49:43;99115.13;;;6.54;100.00
46347;BME280;32057;47.830;19.046;2023-03-15T05:52:08;99116.78;;;6.49;100.00
46347;BME280;32057;47.830;19.046;2023-03-15T05:54:34;99108.13;;;6.49;100.00
46347;BME280;32057;47.830;19.046;2023-03-15T05:56:59;99100.34;;;6.46;100.00
46347;BME280;32057;47.830;19.046;2023-03-15T05:59:25;99104.75;;;6.51;100.00
46347;BME280;32057;47.830;19.046;2023-03-15T06:01:50;99110.00;;;6.57;100.00
46347;BME280;32057;47.830;19.046;2023-03-15T06:04:16;99103.97;;;6.58;100.00
46347;BME280;32057;47.830;19.046;2023-03-15T06:06:41;99115.22;;;6.59;100.00
46347;BME280;32057;47.830;19.046;2023-03-15T06:09:06;99110.13;;;6.64;100.00
46347;BME280;32057;47.830;19.046;2023-03-15T06:11:32;99105.66;;;6.56;100.00
46347;BME280;32057;47.830;19.046;2023-03-15T06:13:57;99100.50;;;6.56;100.00
46347;BME280;32057;47.830;19.046;2023-03-15T06:16:23;99104.88;;;6.59;100.00
46347;BME280;32057;47.830;19.046;2023-03-15T06:18:48;99104.19;;;6.71;100.00
46347;BME280;32057;47.830;19.046;2023-03-15T06:21:13;99118.69;;;6.63;100.00
46347;BME280;32057;47.830;19.046;2023-03-15T06:23:39;99116.06;;;6.60;100.00
46347;BME280;32057;47.830;19.046;2023-03-15T06:26:04;99129.91;;;6.62;100.00
46347;BME280;32057;47.830;19.046;2023-03-15T06:28:30;99130.59;;;6.51;100.00
46347;BME280;32057;47.830;19.046;2023-03-15T06:30:55;99141.84;;;6.56;100.00
46347;BME280;32057;47.830;19.046;2023-03-15T06:33:21;99139.47;;;6.69;100.00
46347;BME280;32057;47.830;19.046;2023-03-15T06:35:47;99144.78;;;6.76;100.00
46347;BME280;32057;47.830;19.046;2023-03-15T06:38:12;99140.59;;;6.83;100.00
46347;BME280;32057;47.830;19.046;2023-03-15T06:40:39;99157.84;;;6.84;100.00
46347;BME280;32057;47.830;19.046;2023-03-15T06:43:04;99155.31;;;6.89;100.00
46347;BME280;32057;47.830;19.046;2023-03-15T06:45:32;99161.28;;;6.83;100.00
46347;BME280;32057;47.830;19.046;2023-03-15T06:47:57;99170.59;;;6.75;100.00
46347;BME280;32057;47.830;19.046;2023-03-15T06:50:23;99175.69;;;6.70;100.00
46347;BME280;32057;47.830;19.046;2023-03-15T06:52:48;99168.78;;;6.68;99.38
46347;BME280;32057;47.830;19.046;2023-03-15T06:55:14;99175.94;;;6.84;100.00
46347;BME280;32057;47.830;19.046;2023-03-15T06:57:43;99190.72;;;6.91;99.19
46347;BME280;32057;47.830;19.046;2023-03-15T07:00:09;99189.81;;;6.91;97.66
46347;BME280;32057;47.830;19.046;2023-03-15T07:02:38;99202.00;;;6.95;97.82
46347;BME280;32057;47.830;19.046;2023-03-15T07:05:06;99200.97;;;6.87;97.81
46347;BME280;32057;47.830;19.046;2023-03-15T07:07:32;99206.25;;;6.91;98.36
46347;BME280;32057;47.830;19.046;2023-03-15T07:09:57;99208.81;;;6.91;98.65
46347;BME280;32057;47.830;19.046;2023-03-15T07:12:23;99201.06;;;6.91;98.57
46347;BME280;32057;47.830;19.046;2023-03-15T07:14:48;99201.19;;;7.01;97.69
46347;BME280;32057;47.830;19.046;2023-03-15T07:17:14;99204.78;;;7.09;98.15
46347;BME280;32057;47.830;19.046;2023-03-15T07:19:39;99203.19;;;7.15;96.29
46347;BME280;32057;47.830;19.046;2023-03-15T07:22:05;99205.66;;;7.09;97.58
46347;BME280;32057;47.830;19.046;2023-03-15T07:24:30;99210.94;;;7.15;97.34
46347;BME280;32057;47.830;19.046;2023-03-15T07:26:56;99217.00;;;7.17;95.44
46347;BME280;32057;47.830;19.046;2023-03-15T07:29:22;99223.97;;;7.22;95.18
46347;BME280;32057;47.830;19.046;2023-03-15T07:31:48;99224.09;;;7.31;92.26
46347;BME280;32057;47.830;19.046;2023-03-15T07:34:14;99219.75;;;7.28;90.72
46347;BME280;32057;47.830;19.046;2023-03-15T07:36:39;99221.59;;;7.35;90.46
46347;BME280;32057;47.830;19.046;2023-03-15T07:39:05;99219.94;;;7.39;89.24
46347;BME280;32057;47.830;19.046;2023-03-15T07:41:30;99224.22;;;7.38;86.90
46347;BME280;32057;47.830;19.046;2023-03-15T07:43:56;99238.03;;;7.37;84.34
46347;BME280;32057;47.830;19.046;2023-03-15T07:46:21;99242.44;;;7.43;84.97
46347;BME280;32057;47.830;19.046;2023-03-15T07:48:47;99238.94;;;7.43;86.61
46347;BME280;32057;47.830;19.046;2023-03-15T07:51:12;99244.22;;;7.49;85.72
46347;BME280;32057;47.830;19.046;2023-03-15T07:53:38;99245.00;;;7.45;82.97
46347;BME280;32057;47.830;19.046;2023-03-15T07:56:04;99245.00;;;7.45;82.97
46347;BME280;32057;47.830;19.046;2023-03-15T07:58:29;99255.44;;;7.48;83.16
46347;BME280;32057;47.830;19.046;2023-03-15T08:00:55;99251.88;;;7.43;82.48
46347;BME280;32057;47.830;19.046;2023-03-15T08:03:22;99258.84;;;7.47;82.52
46347;BME280;32057;47.830;19.046;2023-03-15T08:05:49;99264.13;;;7.51;82.77
46347;BME280;32057;47.830;19.046;2023-03-15T08:08:14;99264.19;;;7.56;85.50
46347;BME280;32057;47.830;19.046;2023-03-15T08:10:40;99259.81;;;7.52;83.70
46347;BME280;32057;47.830;19.046;2023-03-15T08:13:07;99261.56;;;7.54;84.78
46347;BME280;32057;47.830;19.046;2023-03-15T08:15:33;99268.56;;;7.60;84.82
46347;BME280;32057;47.830;19.046;2023-03-15T08:17:58;99272.16;;;7.70;84.23
46347;BME280;32057;47.830;19.046;2023-03-15T08:20:24;99270.13;;;7.50;81.77
46347;BME280;32057;47.830;19.046;2023-03-15T08:22:50;99272.00;;;7.61;78.41
46347;BME280;32057;47.830;19.046;2023-03-15T08:25:18;99278.97;;;7.63;80.83
46347;BME280;32057;47.830;19.046;2023-03-15T08:27:45;99282.28;;;7.54;82.32
46347;BME280;32057;47.830;19.046;2023-03-15T08:30:12;99278.88;;;7.57;80.02
46347;BME280;32057;47.830;19.046;2023-03-15T08:32:39;99285.84;;;7.61;81.74
46347;BME280;32057;47.830;19.046;2023-03-15T08:35:05;99291.72;;;7.51;80.84
46347;BME280;32057;47.830;19.046;2023-03-15T08:37:31;99301.03;;;7.40;80.99
46347;BME280;32057;47.830;19.046;2023-03-15T08:39:56;99303.75;;;7.49;80.87
46347;BME280;32057;47.830;19.046;2023-03-15T08:42:27;99301.84;;;7.38;76.93
46347;BME280;32057;47.830;19.046;2023-03-15T08:44:52;99307.91;;;7.37;79.31
46347;BME280;32057;47.830;19.046;2023-03-15T08:47:18;99313.91;;;7.35;76.97
46347;BME280;32057;47.830;19.046;2023-03-15T08:49:43;99314.00;;;7.43;77.42
46347;BME280;32057;47.830;19.046;2023-03-15T08:52:08;99321.66;;;7.36;76.53
46347;BME280;32057;47.830;19.046;2023-03-15T08:54:34;99318.19;;;7.33;76.04
46347;BME280;32057;47.830;19.046;2023-03-15T08:57:00;99320.78;;;7.34;74.34
46347;BME280;32057;47.830;19.046;2023-03-15T08:59:25;99323.47;;;7.41;76.82
46347;BME280;32057;47.830;19.046;2023-03-15T09:01:51;99332.03;;;7.35;73.75
46347;BME280;32057;47.830;19.046;2023-03-15T09:04:16;99339.81;;;7.38;74.14
46347;BME280;32057;47.830;19.046;2023-03-15T09:06:41;99343.25;;;7.38;74.11
46347;BME280;32057;47.830;19.046;2023-03-15T09:09:07;99350.19;;;7.40;72.62
46347;BME280;32057;47.830;19.046;2023-03-15T09:11:33;99345.06;;;7.43;74.41
46347;BME280;32057;47.830;19.046;2023-03-15T09:13:58;99356.41;;;7.49;72.63
46347;BME280;32057;47.830;19.046;2023-03-15T09:16:23;99363.44;;;7.58;73.92
46347;BME280;32057;47.830;19.046;2023-03-15T09:18:49;99365.28;;;7.64;74.84
46347;BME280;32057;47.830;19.046;2023-03-15T09:21:14;99367.09;;;7.69;71.75
46347;BME280;32057;47.830;19.046;2023-03-15T09:23:40;99377.44;;;7.68;73.42
46347;BME280;32057;47.830;19.046;2023-03-15T09:26:05;99387.03;;;7.76;75.23
46347;BME280;32057;47.830;19.046;2023-03-15T09:28:31;99389.50;;;7.67;73.89
46347;BME280;32057;47.830;19.046;2023-03-15T09:30:57;99394.59;;;7.61;74.11
46347;BME280;32057;47.830;19.046;2023-03-15T09:33:22;99399.66;;;7.55;74.19
46347;BME280;32057;47.830;19.046;2023-03-15T09:35:51;99397.97;;;7.58;75.07
46347;BME280;32057;47.830;19.046;2023-03-15T09:38:17;99410.16;;;7.64;75.67
46347;BME280;32057;47.830;19.046;2023-03-15T09:40:43;99409.13;;;7.53;74.65
46347;BME280;32057;47.830;19.046;2023-03-15T09:53:54;99421.09;;;7.48;70.84
46347;BME280;32057;47.830;19.046;2023-03-15T09:56:27;99419.50;;;7.56;72.68
46347;BME280;32057;47.830;19.046;2023-03-15T09:58:57;99424.50;;;7.47;72.13
46347;BME280;32057;47.830;19.046;2023-03-15T10:01:39;99416.88;;;7.54;71.37
46347;BME280;32057;47.830;19.046;2023-03-15T10:04:15;99435.09;;;7.59;68.30
46347;BME280;32057;47.830;19.046;2023-03-15T10:06:49;99432.16;;;7.41;69.12
46347;BME280;32057;47.830;19.046;2023-03-15T10:09:21;99427.88;;;7.43;70.70
46347;BME280;32057;47.830;19.046;2023-03-15T10:17:52;99435.75;;;7.49;70.49
46347;BME280;32057;47.830;19.046;2023-03-15T10:20:28;99435.00;;;7.53;70.50
46347;BME280;32057;47.830;19.046;2023-03-15T10:25:31;99429.13;;;7.65;69.44
46347;BME280;32057;47.830;19.046;2023-03-15T10:30:48;99433.06;;;7.43;68.24
46347;BME280;32057;47.830;19.046;2023-03-15T10:35:47;99441.72;;;7.45;68.53
46347;BME280;32057;47.830;19.046;2023-03-15T10:38:14;99438.25;;;7.43;67.45
46347;BME280;32057;47.830;19.046;2023-03-15T10:40:43;99436.53;;;7.45;67.67
46347;BME280;32057;47.830;19.046;2023-03-15T10:43:17;99446.16;;;7.50;69.45
46347;BME280;32057;47.830;19.046;2023-03-15T10:46:31;99432.41;;;7.53;66.67
46347;BME280;32057;47.830;19.046;2023-03-15T10:48:33;99434.31;;;7.65;65.31
46347;BME280;32057;47.830;19.046;2023-03-15T10:51:22;99430.06;;;7.68;66.37
46347;BME280;32057;47.830;19.046;2023-03-15T10:54:03;99433.75;;;7.83;66.97
46347;BME280;32057;47.830;19.046;2023-03-15T10:56:43;99435.56;;;7.87;65.86
46347;BME280;32057;47.830;19.046;2023-03-15T10:59:22;99439.09;;;7.89;66.32
46347;BME280;32057;47.830;19.046;2023-03-15T11:01:53;99450.16;;;7.82;66.30
46347;BME280;32057;47.830;19.046;2023-03-15T11:04:21;99447.69;;;7.88;67.23
46347;BME280;32057;47.830;19.046;2023-03-15T11:09:23;99444.56;;;8.07;65.05
46347;BME280;32057;47.830;19.046;2023-03-15T11:12:03;99459.00;;;7.93;62.93
46347;BME280;32057;47.830;19.046;2023-03-15T11:14:39;99445.25;;;7.97;62.70
46347;BME280;32057;47.830;19.046;2023-03-15T11:17:11;99457.28;;;7.93;63.49
46347;BME280;32057;47.830;19.046;2023-03-15T11:19:40;99451.19;;;7.91;63.46
46347;BME280;32057;47.830;19.046;2023-03-15T11:22:11;99455.81;;;8.09;63.41
46347;BME280;32057;47.830;19.046;2023-03-15T11:24:38;99461.81;;;8.08;63.48
46347;BME280;32057;47.830;19.046;2023-03-15T11:27:11;99460.31;;;8.23;62.78
46347;BME280;32057;47.830;19.046;2023-03-15T11:29:39;99461.81;;;8.08;63.03
46347;BME280;32057;47.830;19.046;2023-03-15T11:32:15;99477.34;;;8.05;62.18
46347;BME280;32057;47.830;19.046;2023-03-15T11:35:04;99473.84;;;8.03;63.18
46347;BME280;32057;47.830;19.046;2023-03-15T11:37:47;99473.09;;;8.09;62.53
46347;BME280;32057;47.830;19.046;2023-03-15T11:45:43;99485.16;;;8.08;61.46
46347;BME280;32057;47.830;19.046;2023-03-15T11:48:18;99481.06;;;8.21;62.71
46347;BME280;32057;47.830;19.046;2023-03-15T11:50:44;99479.44;;;8.28;62.79
46347;BME280;32057;47.830;19.046;2023-03-15T11:53:13;99482.88;;;8.27;62.50
46347;BME280;32057;47.830;19.046;2023-03-15T11:55:46;99484.66;;;8.31;62.40
46347;BME280;32057;47.830;19.046;2023-03-15T11:58:32;99491.69;;;8.38;61.24
46347;BME280;32057;47.830;19.046;2023-03-15T12:01:05;99489.78;;;8.28;61.84
46347;BME280;32057;47.830;19.046;2023-03-15T12:03:42;99496.50;;;8.16;60.35
46347;BME280;32057;47.830;19.046;2023-03-15T12:08:52;99492.13;;;8.12;59.97
46347;BME280;32057;47.830;19.046;2023-03-15T12:16:21;99502.59;;;8.18;60.64
46347;BME280;32057;47.830;19.046;2023-03-15T12:18:47;99498.28;;;8.17;60.48
46347;BME280;32057;47.830;19.046;2023-03-15T12:21:16;99508.78;;;8.28;60.04
46347;BME280;32057;47.830;19.046;2023-03-15T12:24:04;99503.44;;;8.17;58.77
46347;BME280;32057;47.830;19.046;2023-03-15T12:26:39;99506.97;;;8.23;58.40
46347;BME280;32057;47.830;19.046;2023-03-15T12:29:18;99509.59;;;8.24;57.29
46347;BME280;32057;47.830;19.046;2023-03-15T12:37:04;99513.19;;;8.32;55.76
46347;BME280;32057;47.830;19.046;2023-03-15T12:42:12;99514.44;;;8.56;56.22
46347;BME280;32057;47.830;19.046;2023-03-15T12:44:41;99527.53;;;8.64;55.63
46347;BME280;32057;47.830;19.046;2023-03-15T12:47:09;99518.06;;;8.66;54.72
46347;BME280;32057;47.830;19.046;2023-03-15T12:52:12;99518.88;;;8.62;53.75
46347;BME280;32057;47.830;19.046;2023-03-15T12:54:54;99524.78;;;8.54;54.46
46347;BME280;32057;47.830;19.046;2023-03-15T12:57:28;99513.78;;;8.68;54.21
46347;BME280;32057;47.830;19.046;2023-03-15T13:00:09;99515.66;;;8.78;53.16
46347;BME280;32057;47.830;19.046;2023-03-15T13:02:43;99518.31;;;8.84;53.57
46347;BME280;32057;47.830;19.046;2023-03-15T13:05:29;99507.13;;;8.87;52.35
46347;BME280;32057;47.830;19.046;2023-03-15T13:13:18;99525.50;;;9.01;51.16
46347;BME280;32057;47.830;19.046;2023-03-15T13:16:00;99535.16;;;9.14;50.36
46347;BME280;32057;47.830;19.046;2023-03-15T13:18:33;99538.72;;;9.19;50.87
46347;BME280;32057;47.830;19.046;2023-03-15T13:21:23;99536.03;;;9.13;50.63
46347;BME280;32057;47.830;19.046;2023-03-15T13:23:51;99547.22;;;9.10;50.84
46347;BME280;32057;47.830;19.046;2023-03-15T13:26:34;99544.31;;;8.87;50.53
46347;BME280;32057;47.830;19.046;2023-03-15T13:31:31;99550.16;;;8.74;50.76
46347;BME280;32057;47.830;19.046;2023-03-15T13:34:09;99555.22;;;8.66;50.32
46347;BME280;32057;47.830;19.046;2023-03-15T13:36:41;99556.31;;;8.79;50.99
46347;BME280;32057;47.830;19.046;2023-03-15T13:39:20;99560.50;;;8.71;50.37
46347;BME280;32057;47.830;19.046;2023-03-15T13:41:48;99556.88;;;8.60;50.24
46347;BME280;32057;47.830;19.046;2023-03-15T13:44:21;99569.78;;;8.56;49.20
46347;BME280;32057;47.830;19.046;2023-03-15T13:46:49;99580.00;;;8.47;50.18
46347;BME280;32057;47.830;19.046;2023-03-15T13:49:18;99586.94;;;8.48;49.19
46347;BME280;32057;47.830;19.046;2023-03-15T13:51:44;99588.63;;;8.45;49.38
46347;BME280;32057;47.830;19.046;2023-03-15T13:54:23;99592.63;;;8.30;49.62
46347;BME280;32057;47.830;19.046;2023-03-15T13:57:10;99603.75;;;8.25;49.39
46347;BME280;32057;47.830;19.046;2023-03-15T13:59:49;99602.00;;;8.22;49.87
46347;BME280;32057;47.830;19.046;2023-03-15T14:02:21;99614.81;;;8.14;49.18
46347;BME280;32057;47.830;19.046;2023-03-15T14:04:56;99607.81;;;8.10;48.83
46347;BME280;32057;47.830;19.046;2023-03-15T14:07:37;99609.38;;;8.01;50.64